createdAt,value
2023-04-27T00:00:26.995Z,0.00
2023-04-27T00:01:27.567Z,0.00
2023-04-27T00:02:27.828Z,0.00
2023-04-27T00:03:28.078Z,0.00
2023-04-27T00:04:28.425Z,0.00
2023-04-27T00:05:28.694Z,0.00
2023-04-27T00:06:28.868Z,0.00
2023-04-27T00:07:29.120Z,0.00
2023-04-27T00:08:29.480Z,0.00
2023-04-27T00:09:29.765Z,0.00
2023-04-27T00:10:30.109Z,0.00
2023-04-27T00:11:30.509Z,0.00
2023-04-27T00:12:30.527Z,1.00
2023-04-27T00:13:30.990Z,0.00
2023-04-27T00:14:31.233Z,0.00
2023-04-27T00:15:31.574Z,0.00
2023-04-27T00:16:32.062Z,0.00
2023-04-27T00:17:32.219Z,0.00
2023-04-27T00:18:32.563Z,0.00
2023-04-27T00:19:32.760Z,1.00
2023-04-27T00:20:33.056Z,0.00
2023-04-27T00:21:33.350Z,0.00
2023-04-27T00:22:33.696Z,0.00
2023-04-27T00:23:33.973Z,0.00
2023-04-27T00:24:34.273Z,0.00
2023-04-27T00:25:34.702Z,0.00
2023-04-27T00:26:34.896Z,0.00
2023-04-27T00:27:35.241Z,0.00
2023-04-27T00:28:35.414Z,0.00
2023-04-27T00:29:35.723Z,0.00
2023-04-27T00:30:36.065Z,0.00
2023-04-27T00:31:36.371Z,0.00
2023-04-27T00:32:36.652Z,0.00
2023-04-27T00:33:37.121Z,0.00
2023-04-27T00:34:37.248Z,0.00
2023-04-27T00:35:37.532Z,1.00
2023-04-27T00:36:37.949Z,0.00
2023-04-27T00:37:38.184Z,0.00
2023-04-27T00:38:38.654Z,0.00
2023-04-27T00:39:38.818Z,0.00
2023-04-27T00:40:39.105Z,0.00
2023-04-27T00:41:39.414Z,0.00
2023-04-27T00:42:40.976Z,0.00
2023-04-27T00:43:39.931Z,0.00
2023-04-27T00:44:40.650Z,0.00
2023-04-27T00:45:40.578Z,0.00
2023-04-27T00:46:40.792Z,0.00
2023-04-27T00:47:41.440Z,0.00
2023-04-27T00:48:41.397Z,0.00
2023-04-27T00:49:41.705Z,1.00
2023-04-27T00:50:41.881Z,0.00
2023-04-27T00:51:42.207Z,0.00
2023-04-27T00:52:42.435Z,0.00
2023-04-27T00:53:42.789Z,0.00
2023-04-27T00:54:43.126Z,0.00
2023-04-27T00:55:43.379Z,0.00
2023-04-27T00:56:43.701Z,0.00
2023-04-27T00:57:44.150Z,0.00
2023-04-27T00:58:44.303Z,0.00
2023-04-27T00:59:45.451Z,0.00
2023-04-27T01:00:44.823Z,1.00
2023-04-27T01:01:45.212Z,0.00
2023-04-27T01:02:46.042Z,0.00
2023-04-27T01:03:45.915Z,0.00
2023-04-27T01:04:45.943Z,0.00
2023-04-27T01:05:46.304Z,0.00
2023-04-27T01:06:46.440Z,0.00
2023-04-27T01:07:46.769Z,1.00
2023-04-27T01:08:46.940Z,1.00
2023-04-27T01:09:47.409Z,0.00
2023-04-27T01:10:47.528Z,0.00
2023-04-27T01:11:47.819Z,0.00
2023-04-27T01:12:48.244Z,0.00
2023-04-27T01:13:48.394Z,0.00
2023-04-27T01:14:48.737Z,0.00
2023-04-27T01:15:49.337Z,0.00
2023-04-27T01:16:49.347Z,0.00
2023-04-27T01:17:49.711Z,0.00
2023-04-27T01:18:49.944Z,0.00
2023-04-27T01:19:50.274Z,0.00
2023-04-27T01:20:50.541Z,0.00
2023-04-27T01:21:51.135Z,0.00
2023-04-27T01:22:51.038Z,0.00
2023-04-27T01:23:51.393Z,0.00
2023-04-27T01:24:51.640Z,0.00
2023-04-27T01:25:51.963Z,0.00
2023-04-27T01:26:53.206Z,0.00
2023-04-27T01:27:52.506Z,0.00
2023-04-27T01:28:52.789Z,0.00
2023-04-27T01:29:53.207Z,0.00
2023-04-27T01:30:53.351Z,0.00
2023-04-27T01:31:53.606Z,0.00
2023-04-27T01:32:53.888Z,0.00
2023-04-27T01:33:54.208Z,0.00
2023-04-27T01:34:54.536Z,0.00
2023-04-27T01:35:54.809Z,0.00
2023-04-27T01:36:55.112Z,0.00
2023-04-27T01:37:55.441Z,0.00
2023-04-27T01:38:55.721Z,0.00
2023-04-27T01:39:56.076Z,0.00
2023-04-27T01:40:56.330Z,0.00
2023-04-27T01:41:58.346Z,0.00
2023-04-27T01:42:56.973Z,0.00
2023-04-27T01:43:57.269Z,0.00
2023-04-27T01:44:57.636Z,0.00
2023-04-27T01:45:57.899Z,0.00
2023-04-27T01:46:58.152Z,0.00
2023-04-27T01:47:58.475Z,0.00
2023-04-27T01:48:58.743Z,0.00
2023-04-27T01:49:59.104Z,0.00
2023-04-27T01:51:20.379Z,0.00
2023-04-27T01:51:59.731Z,0.00
2023-04-27T01:53:00.126Z,0.00
2023-04-27T01:54:21.359Z,0.00
2023-04-27T01:55:00.647Z,0.00
2023-04-27T01:56:00.960Z,0.00
2023-04-27T01:57:01.319Z,0.00
2023-04-27T01:58:01.548Z,0.00
2023-04-27T01:59:01.838Z,0.00
2023-04-27T02:00:02.171Z,0.00
2023-04-27T02:01:02.588Z,0.00
2023-04-27T02:02:02.904Z,0.00
2023-04-27T02:03:24.124Z,0.00
2023-04-27T02:04:24.286Z,0.00
2023-04-27T02:05:03.440Z,0.00
2023-04-27T02:06:03.781Z,0.00
2023-04-27T02:07:03.997Z,0.00
2023-04-27T02:08:04.335Z,0.00
2023-04-27T02:09:25.612Z,0.00
2023-04-27T02:10:04.954Z,0.00
2023-04-27T02:11:05.163Z,0.00
2023-04-27T02:12:05.496Z,0.00
2023-04-27T02:13:05.790Z,0.00
2023-04-27T02:14:06.083Z,0.00
2023-04-27T02:15:06.488Z,0.00
2023-04-27T02:16:06.793Z,0.00
2023-04-27T02:17:07.097Z,0.00
2023-04-27T02:18:28.465Z,0.00
2023-04-27T02:19:07.617Z,0.00
2023-04-27T02:20:08.230Z,0.00
2023-04-27T02:21:29.163Z,0.00
2023-04-27T02:22:09.383Z,0.00
2023-04-27T02:23:08.795Z,0.00
2023-04-27T02:24:09.064Z,0.00
2023-04-27T02:25:09.807Z,0.00
2023-04-27T02:26:09.817Z,0.00
2023-04-27T02:27:09.990Z,0.00
2023-04-27T02:30:43.090Z,0.00
2023-04-27T02:31:43.396Z,0.00
2023-04-27T02:32:43.570Z,1.00
2023-04-27T02:33:43.865Z,0.00
2023-04-27T02:35:05.199Z,0.00
2023-04-27T02:36:05.528Z,0.00
2023-04-27T02:39:15.852Z,0.00
2023-04-27T02:40:15.862Z,0.00
2023-04-27T02:42:31.624Z,0.00
2023-04-27T02:43:31.913Z,0.00
2023-04-27T02:45:48.623Z,0.00
2023-04-27T02:46:48.915Z,0.00
2023-04-27T02:48:10.313Z,0.00
2023-04-27T02:48:49.461Z,0.00
2023-04-27T02:52:21.656Z,0.00
2023-04-27T02:54:37.227Z,0.00
2023-04-27T02:56:53.898Z,0.00
2023-04-27T02:58:15.223Z,0.00
2023-04-27T02:59:15.838Z,0.00
2023-04-27T03:00:15.763Z,0.00
2023-04-27T03:01:16.131Z,0.00
2023-04-27T03:02:16.551Z,0.00
2023-04-27T03:02:55.690Z,0.00
2023-04-27T03:03:56.038Z,0.00
2023-04-27T03:05:17.083Z,0.00
2023-04-27T03:07:12.816Z,0.00
2023-04-27T03:08:34.137Z,0.00
2023-04-27T03:09:34.348Z,0.00
2023-04-27T03:10:34.602Z,1.00
2023-04-27T03:14:05.659Z,0.00
2023-04-27T03:18:31.241Z,0.00
2023-04-27T03:19:52.501Z,0.00
2023-04-27T03:20:31.780Z,0.00
2023-04-27T03:21:32.151Z,0.00
2023-04-27T03:22:32.309Z,0.00
2023-04-27T03:23:32.669Z,0.00
2023-04-27T03:24:32.961Z,0.00
2023-04-27T03:25:33.183Z,1.00
2023-04-27T03:26:33.446Z,0.00
2023-04-27T03:27:33.819Z,0.00
2023-04-27T03:28:34.113Z,0.00
2023-04-27T03:29:34.645Z,0.00
2023-04-27T03:30:34.686Z,1.00
2023-04-27T03:31:35.106Z,0.00
2023-04-27T03:32:35.436Z,0.00
2023-04-27T03:33:35.598Z,0.00
2023-04-27T03:34:35.958Z,0.00
2023-04-27T03:35:36.306Z,0.00
2023-04-27T03:36:36.579Z,0.00
2023-04-27T03:37:36.888Z,0.00
2023-04-27T03:38:37.040Z,1.00
2023-04-27T03:39:37.427Z,1.00
2023-04-27T03:40:37.676Z,1.00
2023-04-27T03:41:37.951Z,1.00
2023-04-27T03:42:38.158Z,1.00
2023-04-27T03:43:38.549Z,0.00
2023-04-27T03:44:39.021Z,0.00
2023-04-27T03:45:39.154Z,0.00
2023-04-27T03:46:39.540Z,0.00
2023-04-27T03:47:39.704Z,1.00
2023-04-27T03:48:39.915Z,0.00
2023-04-27T03:49:40.201Z,1.00
2023-04-27T03:50:40.570Z,0.00
2023-04-27T03:51:40.732Z,0.00
2023-04-27T03:52:41.067Z,0.00
2023-04-27T03:53:41.304Z,4.00
2023-04-27T03:54:41.521Z,3.00
2023-04-27T03:55:41.982Z,2.00
2023-04-27T03:56:42.176Z,3.00
2023-04-27T03:57:42.343Z,1.00
2023-04-27T03:58:42.656Z,3.00
2023-04-27T03:59:43.016Z,2.00
2023-04-27T04:00:43.194Z,5.00
2023-04-27T04:01:43.559Z,7.00
2023-04-27T04:02:43.913Z,5.00
2023-04-27T04:03:44.235Z,9.00
2023-04-27T04:04:44.435Z,7.00
2023-04-27T04:05:44.657Z,8.00
2023-04-27T04:06:44.863Z,6.00
2023-04-27T04:07:45.184Z,11.00
2023-04-27T04:08:45.400Z,16.00
2023-04-27T04:09:45.789Z,15.00
2023-04-27T04:10:46.099Z,20.00
2023-04-27T04:11:46.294Z,18.00
2023-04-27T04:12:46.529Z,20.00
2023-04-27T04:13:46.860Z,23.00
2023-04-27T04:14:47.245Z,30.00
2023-04-27T04:15:47.582Z,32.00
2023-04-27T04:16:47.807Z,33.00
2023-04-27T04:17:48.018Z,34.00
2023-04-27T04:18:48.457Z,36.00
2023-04-27T04:19:48.675Z,38.00
2023-04-27T04:20:48.849Z,35.00
2023-04-27T04:21:50.193Z,44.00
2023-04-27T04:22:49.603Z,45.00
2023-04-27T04:23:49.842Z,50.00
2023-04-27T04:24:50.010Z,56.00
2023-04-27T04:25:50.400Z,51.00
2023-04-27T04:26:50.712Z,60.00
2023-04-27T04:27:50.886Z,59.00
2023-04-27T04:28:51.210Z,63.00
2023-04-27T04:29:51.430Z,70.00
2023-04-27T04:30:51.776Z,74.00
2023-04-27T04:31:52.239Z,72.00
2023-04-27T04:32:52.461Z,75.00
2023-04-27T04:33:52.654Z,80.00
2023-04-27T04:34:53.001Z,83.00
2023-04-27T04:35:53.443Z,90.00
2023-04-27T04:36:53.633Z,89.00
2023-04-27T04:37:53.985Z,90.00
2023-04-27T04:38:54.132Z,104.00
2023-04-27T04:39:54.403Z,100.00
2023-04-27T04:40:54.718Z,107.00
2023-04-27T04:41:54.882Z,111.00
2023-04-27T04:42:55.379Z,119.00
2023-04-27T04:43:55.560Z,120.00
2023-04-27T04:44:55.785Z,131.00
2023-04-27T04:45:56.158Z,138.00
2023-04-27T04:46:56.463Z,142.00
2023-04-27T04:47:57.221Z,153.00
2023-04-27T04:48:57.071Z,167.00
2023-04-27T04:49:57.283Z,172.00
2023-04-27T04:50:57.692Z,181.00
2023-04-27T04:51:57.907Z,191.00
2023-04-27T04:52:58.528Z,197.00
2023-04-27T04:54:01.110Z,204.00
2023-04-27T04:54:58.941Z,209.00
2023-04-27T04:55:59.138Z,214.00
2023-04-27T04:56:59.397Z,228.00
2023-04-27T04:58:00.539Z,236.00
2023-04-27T04:58:59.918Z,240.00
2023-04-27T05:00:01.088Z,249.00
2023-04-27T05:01:00.392Z,263.00
2023-04-27T05:02:00.689Z,267.00
2023-04-27T05:03:00.998Z,277.00
2023-04-27T05:04:01.568Z,282.00
2023-04-27T05:05:01.495Z,287.00
2023-04-27T05:06:01.788Z,294.00
2023-04-27T05:07:02.014Z,304.00
2023-04-27T05:08:02.275Z,306.00
2023-04-27T05:09:02.587Z,319.00
2023-04-27T05:10:02.850Z,324.00
2023-04-27T05:11:03.089Z,337.00
2023-04-27T05:12:03.246Z,349.00
2023-04-27T05:13:05.927Z,353.00
2023-04-27T05:14:03.901Z,365.00
2023-04-27T05:15:04.182Z,379.00
2023-04-27T05:16:04.398Z,395.00
2023-04-27T05:17:04.729Z,406.00
2023-04-27T05:18:05.036Z,404.00
2023-04-27T05:19:05.211Z,417.00
2023-04-27T05:20:06.022Z,433.00
2023-04-27T05:21:05.851Z,430.00
2023-04-27T05:22:06.248Z,441.00
2023-04-27T05:23:06.478Z,445.00
2023-04-27T05:24:06.774Z,449.00
2023-04-27T05:25:06.981Z,449.00
2023-04-27T05:26:07.252Z,457.00
2023-04-27T05:27:07.702Z,457.00
2023-04-27T05:28:07.895Z,479.00
2023-04-27T05:29:08.560Z,489.00
2023-04-27T05:30:08.574Z,498.00
2023-04-27T05:31:08.948Z,505.00
2023-04-27T05:32:09.261Z,510.00
2023-04-27T05:33:09.976Z,520.00
2023-04-27T05:34:09.769Z,541.00
2023-04-27T05:35:10.074Z,551.00
2023-04-27T05:36:10.344Z,547.00
2023-04-27T05:37:10.509Z,559.00
2023-04-27T05:38:10.882Z,579.00
2023-04-27T05:39:11.179Z,571.00
2023-04-27T05:40:11.446Z,594.00
2023-04-27T05:41:11.675Z,612.00
2023-04-27T05:42:11.920Z,618.00
2023-04-27T05:43:12.231Z,639.00
2023-04-27T05:44:12.453Z,645.00
2023-04-27T05:45:12.836Z,661.00
2023-04-27T05:46:13.052Z,660.00
2023-04-27T05:47:13.330Z,672.00
2023-04-27T05:48:13.514Z,690.00
2023-04-27T05:49:14.051Z,705.00
2023-04-27T05:50:14.587Z,712.00
2023-04-27T05:51:14.405Z,710.00
2023-04-27T05:52:14.628Z,732.00
2023-04-27T05:53:14.859Z,755.00
2023-04-27T05:54:15.215Z,753.00
2023-04-27T05:55:15.578Z,740.00
2023-04-27T05:56:15.769Z,783.00
2023-04-27T05:57:15.992Z,796.00
2023-04-27T05:58:16.354Z,804.00
2023-04-27T05:59:16.780Z,809.00
2023-04-27T06:00:17.834Z,843.00
2023-04-27T06:01:17.269Z,880.00
2023-04-27T06:02:17.572Z,880.00
2023-04-27T06:03:17.865Z,886.00
2023-04-27T06:04:18.212Z,905.00
2023-04-27T06:05:18.495Z,929.00
2023-04-27T06:06:18.816Z,938.00
2023-04-27T06:07:18.946Z,973.00
2023-04-27T06:08:19.267Z,991.00
2023-04-27T06:09:19.482Z,1030.00
2023-04-27T06:10:19.936Z,1042.00
2023-04-27T06:11:20.059Z,1058.00
2023-04-27T06:12:20.297Z,1087.00
2023-04-27T06:13:20.676Z,1084.00
2023-04-27T06:14:21.882Z,1072.00
2023-04-27T06:15:23.335Z,1115.00
2023-04-27T06:16:23.309Z,996.00
2023-04-27T06:17:24.475Z,1157.00
2023-04-27T06:18:21.964Z,1173.00
2023-04-27T06:19:22.314Z,1187.00
2023-04-27T06:20:22.472Z,1212.00
2023-04-27T06:21:22.743Z,1185.00
2023-04-27T06:22:23.157Z,1190.00
2023-04-27T06:23:23.336Z,1128.00
2023-04-27T06:24:23.588Z,1237.00
2023-04-27T06:25:26.640Z,1239.00
2023-04-27T06:26:24.111Z,1278.00
2023-04-27T06:27:24.356Z,1275.00
2023-04-27T06:28:24.590Z,1284.00
2023-04-27T06:29:24.888Z,1332.00
2023-04-27T06:30:25.212Z,1364.00
2023-04-27T06:31:25.551Z,1281.00
2023-04-27T06:32:26.162Z,1248.00
2023-04-27T06:33:26.077Z,1190.00
2023-04-27T06:34:26.300Z,1236.00
2023-04-27T06:35:26.614Z,1289.00
2023-04-27T06:36:27.363Z,1342.00
2023-04-27T06:37:27.185Z,1350.00
2023-04-27T06:38:27.706Z,1362.00
2023-04-27T06:39:27.878Z,1413.00
2023-04-27T06:40:28.189Z,1427.00
2023-04-27T06:41:28.479Z,1447.00
2023-04-27T06:42:28.566Z,1460.00
2023-04-27T06:43:29.081Z,1466.00
2023-04-27T06:44:29.171Z,1505.00
2023-04-27T06:45:29.588Z,1492.00
2023-04-27T06:46:29.779Z,1479.00
2023-04-27T06:47:30.188Z,1478.00
2023-04-27T06:48:30.504Z,1501.00
2023-04-27T06:49:30.919Z,1535.00
2023-04-27T06:50:31.022Z,1618.00
2023-04-27T06:51:31.241Z,1653.00
2023-04-27T06:52:31.564Z,1647.00
2023-04-27T06:53:32.065Z,1666.00
2023-04-27T06:54:32.108Z,1650.00
2023-04-27T06:55:32.348Z,1629.00
2023-04-27T06:56:32.580Z,1640.00
2023-04-27T06:57:32.894Z,1753.00
2023-04-27T06:58:33.169Z,1695.00
2023-04-27T06:59:33.491Z,1717.00
2023-04-27T07:00:33.854Z,1731.00
2023-04-27T07:01:33.972Z,1798.00
2023-04-27T07:02:34.289Z,1747.00
2023-04-27T07:03:34.708Z,1754.00
2023-04-27T07:04:35.799Z,1789.00
2023-04-27T07:05:35.092Z,1816.00
2023-04-27T07:06:35.296Z,1763.00
2023-04-27T07:07:35.671Z,1896.00
2023-04-27T07:08:36.941Z,2413.00
2023-04-27T07:09:36.195Z,2012.00
2023-04-27T07:10:36.431Z,2044.00
2023-04-27T07:11:36.867Z,2012.00
2023-04-27T07:12:36.877Z,1997.00
2023-04-27T07:13:37.285Z,1716.00
2023-04-27T07:14:37.631Z,1913.00
2023-04-27T07:15:37.870Z,1832.00
2023-04-27T07:16:38.144Z,1802.00
2023-04-27T07:17:38.473Z,1935.00
2023-04-27T07:18:38.723Z,2105.00
2023-04-27T07:19:38.993Z,2187.00
2023-04-27T07:20:40.616Z,2169.00
2023-04-27T07:21:39.577Z,2160.00
2023-04-27T07:22:39.813Z,2195.00
2023-04-27T07:23:40.113Z,2171.00
2023-04-27T07:24:40.339Z,2397.00
2023-04-27T07:25:40.832Z,2212.00
2023-04-27T07:26:40.915Z,2131.00
2023-04-27T07:27:41.270Z,2574.00
2023-04-27T07:28:42.755Z,2287.00
2023-04-27T07:29:41.791Z,2251.00
2023-04-27T07:30:42.521Z,2957.00
2023-04-27T07:31:44.198Z,2211.00
2023-04-27T07:32:42.703Z,1153.00
2023-04-27T07:33:42.944Z,2126.00
2023-04-27T07:34:52.523Z,2206.00
2023-04-27T07:35:44.667Z,2537.00
2023-04-27T07:36:43.979Z,2178.00
2023-04-27T07:37:44.185Z,2139.00
2023-04-27T07:38:44.486Z,2145.00
2023-04-27T07:39:44.729Z,2556.00
2023-04-27T07:40:45.053Z,2274.00
2023-04-27T07:41:45.374Z,2180.00
2023-04-27T07:42:45.672Z,3828.00
2023-04-27T07:43:45.914Z,1026.00
2023-04-27T07:44:46.178Z,2605.00
2023-04-27T07:45:47.354Z,2399.00
2023-04-27T07:46:46.796Z,4195.00
2023-04-27T07:47:46.992Z,2745.00
2023-04-27T07:48:47.355Z,3012.00
2023-04-27T07:49:47.657Z,1341.00
2023-04-27T07:50:47.907Z,2183.00
2023-04-27T07:51:48.100Z,2375.00
2023-04-27T07:52:48.455Z,2482.00
2023-04-27T07:53:49.500Z,2375.00
2023-04-27T07:54:48.954Z,2524.00
2023-04-27T07:55:49.217Z,2425.00
2023-04-27T07:56:49.460Z,1792.00
2023-04-27T07:57:49.749Z,2033.00
2023-04-27T07:58:50.088Z,2235.00
2023-04-27T07:59:50.419Z,2404.00
2023-04-27T08:00:50.692Z,2279.00
2023-04-27T08:01:50.967Z,2378.00
2023-04-27T08:02:51.412Z,2062.00
2023-04-27T08:03:52.543Z,2302.00
2023-04-27T08:04:52.105Z,2335.00
2023-04-27T08:05:53.344Z,2346.00
2023-04-27T08:06:52.535Z,2461.00
2023-04-27T08:07:53.153Z,2509.00
2023-04-27T08:08:52.949Z,2674.00
2023-04-27T08:09:53.249Z,2713.00
2023-04-27T08:10:53.478Z,2854.00
2023-04-27T08:11:54.580Z,3125.00
2023-04-27T08:12:54.095Z,3147.00
2023-04-27T08:13:54.347Z,3438.00
2023-04-27T08:14:54.628Z,4045.00
2023-04-27T08:15:54.974Z,3202.00
2023-04-27T08:16:55.294Z,2884.00
2023-04-27T08:17:55.466Z,2838.00
2023-04-27T08:18:55.682Z,3731.00
2023-04-27T08:19:55.950Z,3616.00
2023-04-27T08:20:56.275Z,2159.00
2023-04-27T08:21:56.531Z,3651.00
2023-04-27T08:22:56.730Z,4207.00
2023-04-27T08:23:57.118Z,2636.00
2023-04-27T08:24:57.327Z,3475.00
2023-04-27T08:25:57.643Z,4048.00
2023-04-27T08:26:58.031Z,3534.00
2023-04-27T08:27:58.300Z,3748.00
2023-04-27T08:28:58.733Z,3748.00
2023-04-27T08:29:58.855Z,3652.00
2023-04-27T08:30:59.136Z,4148.00
2023-04-27T08:32:00.349Z,2849.00
2023-04-27T08:32:59.681Z,3620.00
2023-04-27T08:34:01.005Z,3728.00
2023-04-27T08:35:00.187Z,3867.00
2023-04-27T08:36:00.519Z,3770.00
2023-04-27T08:37:00.765Z,3837.00
2023-04-27T08:38:01.122Z,4211.00
2023-04-27T08:39:01.340Z,4203.00
2023-04-27T08:40:02.961Z,4347.00
2023-04-27T08:41:14.180Z,4131.00
2023-04-27T08:42:03.279Z,5103.00
2023-04-27T08:43:02.591Z,3450.00
2023-04-27T08:44:02.795Z,4865.00
2023-04-27T08:45:03.096Z,4633.00
2023-04-27T08:46:03.452Z,5173.00
2023-04-27T08:47:03.678Z,4560.00
2023-04-27T08:48:04.013Z,4576.00
2023-04-27T08:49:04.420Z,5074.00
2023-04-27T08:50:04.548Z,5431.00
2023-04-27T08:51:05.081Z,4349.00
2023-04-27T08:52:06.244Z,3823.00
2023-04-27T08:53:05.471Z,4188.00
2023-04-27T08:54:05.690Z,5552.00
2023-04-27T08:55:06.037Z,3413.00
2023-04-27T08:56:06.309Z,3930.00
2023-04-27T08:57:06.549Z,3833.00
2023-04-27T08:58:06.820Z,3802.00
2023-04-27T08:59:07.134Z,3850.00
2023-04-27T09:00:07.355Z,4766.00
2023-04-27T09:01:07.613Z,3087.00
2023-04-27T09:02:08.078Z,6597.00
2023-04-27T09:03:08.416Z,7785.00
2023-04-27T09:04:08.769Z,5888.00
2023-04-27T09:05:09.822Z,9150.00
2023-04-27T09:06:09.187Z,7960.00
2023-04-27T09:07:09.468Z,8502.00
2023-04-27T09:08:09.768Z,7352.00
2023-04-27T09:09:09.986Z,10275.00
2023-04-27T09:10:10.223Z,10389.00
2023-04-27T09:11:10.533Z,10611.00
2023-04-27T09:12:10.841Z,9311.00
2023-04-27T09:13:11.125Z,10902.00
2023-04-27T09:14:11.333Z,6487.00
2023-04-27T09:15:11.589Z,6688.00
2023-04-27T09:16:12.097Z,6234.00
2023-04-27T09:17:12.177Z,4413.00
2023-04-27T09:18:12.518Z,5888.00
2023-04-27T09:19:13.111Z,5343.00
2023-04-27T09:20:12.962Z,4009.00
2023-04-27T09:21:13.203Z,3630.00
2023-04-27T09:22:13.418Z,4723.00
2023-04-27T09:23:13.682Z,4463.00
2023-04-27T09:24:13.963Z,4286.00
2023-04-27T09:25:14.378Z,4336.00
2023-04-27T09:26:14.488Z,4192.00
2023-04-27T09:27:14.720Z,4438.00
2023-04-27T09:28:14.955Z,4853.00
2023-04-27T09:29:15.699Z,4781.00
2023-04-27T09:30:15.653Z,5226.00
2023-04-27T09:31:15.969Z,4819.00
2023-04-27T09:32:17.009Z,5649.00
2023-04-27T09:33:16.335Z,5560.00
2023-04-27T09:34:16.695Z,6374.00
2023-04-27T09:35:17.028Z,5745.00
2023-04-27T09:36:17.270Z,6840.00
2023-04-27T09:37:17.652Z,7384.00
2023-04-27T09:38:17.893Z,8337.00
2023-04-27T09:39:18.049Z,8750.00
2023-04-27T09:40:18.333Z,10530.00
2023-04-27T09:41:18.649Z,11648.00
2023-04-27T09:42:19.003Z,10098.00
2023-04-27T09:43:19.176Z,9364.00
2023-04-27T09:44:19.607Z,9196.00
2023-04-27T09:45:19.817Z,8185.00
2023-04-27T09:46:20.173Z,7625.00
2023-04-27T09:47:20.353Z,7943.00
2023-04-27T09:48:20.633Z,9152.00
2023-04-27T09:49:20.901Z,8402.00
2023-04-27T09:50:21.173Z,7437.00
2023-04-27T09:51:21.468Z,7512.00
2023-04-27T09:52:21.749Z,8158.00
2023-04-27T09:53:22.012Z,5749.00
2023-04-27T09:54:22.279Z,9010.00
2023-04-27T09:55:22.581Z,8785.00
2023-04-27T09:56:22.885Z,14046.00
2023-04-27T09:57:23.160Z,16381.00
2023-04-27T09:58:23.500Z,17351.00
2023-04-27T09:59:23.731Z,17257.00
2023-04-27T10:00:24.033Z,11188.00
2023-04-27T10:01:24.392Z,16226.00
2023-04-27T10:02:25.725Z,19021.00
2023-04-27T10:03:24.896Z,7577.00
2023-04-27T10:04:25.450Z,11936.00
2023-04-27T10:05:25.757Z,14559.00
2023-04-27T10:06:25.888Z,7813.00
2023-04-27T10:07:26.045Z,20380.00
2023-04-27T10:08:26.319Z,15056.00
2023-04-27T10:09:26.563Z,17971.00
2023-04-27T10:10:26.988Z,23508.00
2023-04-27T10:11:27.080Z,28389.00
2023-04-27T10:12:27.510Z,13852.00
2023-04-27T10:13:27.829Z,10666.00
2023-04-27T10:14:28.223Z,19531.00
2023-04-27T10:15:28.449Z,15759.00
2023-04-27T10:16:28.866Z,9743.00
2023-04-27T10:17:28.951Z,12320.00
2023-04-27T10:18:29.269Z,15652.00
2023-04-27T10:19:29.509Z,16607.00
2023-04-27T10:20:29.838Z,10328.00
2023-04-27T10:21:30.165Z,11918.00
2023-04-27T10:22:30.330Z,12793.00
2023-04-27T10:23:30.631Z,13778.00
2023-04-27T10:24:31.767Z,12504.00
2023-04-27T10:25:31.261Z,14005.00
2023-04-27T10:26:32.089Z,20127.00
2023-04-27T10:27:31.778Z,15860.00
2023-04-27T10:28:31.984Z,9938.00
2023-04-27T10:29:32.254Z,17904.00
2023-04-27T10:30:32.640Z,15405.00
2023-04-27T10:31:32.929Z,20123.00
2023-04-27T10:32:33.000Z,25550.00
2023-04-27T10:33:33.392Z,18835.00
2023-04-27T10:34:33.618Z,21916.00
2023-04-27T10:35:33.991Z,16951.00
2023-04-27T10:36:34.160Z,14143.00
2023-04-27T10:37:34.635Z,24347.00
2023-04-27T10:38:34.828Z,21163.00
2023-04-27T10:39:47.141Z,21066.00
2023-04-27T10:40:36.458Z,19320.00
2023-04-27T10:41:35.730Z,17846.00
2023-04-27T10:42:36.068Z,14251.00
2023-04-27T10:43:36.446Z,17468.00
2023-04-27T10:44:36.546Z,20197.00
2023-04-27T10:45:37.822Z,20641.00
2023-04-27T10:46:37.153Z,20065.00
2023-04-27T10:47:37.488Z,24120.00
2023-04-27T10:48:37.654Z,19405.00
2023-04-27T10:49:37.897Z,16406.00
2023-04-27T10:50:38.222Z,18292.00
2023-04-27T10:51:38.500Z,17237.00
2023-04-27T10:52:38.715Z,23233.00
2023-04-27T10:53:39.997Z,28431.00
2023-04-27T10:54:39.418Z,21941.00
2023-04-27T10:55:39.709Z,21223.00
2023-04-27T10:56:40.014Z,73855.00
2023-04-27T10:57:40.295Z,23070.00
2023-04-27T10:58:48.895Z,23563.00
2023-04-27T10:59:41.950Z,20811.00
2023-04-27T11:00:41.153Z,17454.00
2023-04-27T11:01:41.489Z,23875.00
2023-04-27T11:02:41.822Z,18904.00
2023-04-27T11:03:42.153Z,21619.00
2023-04-27T11:04:42.400Z,23685.00
2023-04-27T11:05:42.721Z,17034.00
2023-04-27T11:06:42.990Z,73824.00
2023-04-27T11:07:43.491Z,24125.00
2023-04-27T11:08:43.522Z,21931.00
2023-04-27T11:09:43.797Z,25276.00
2023-04-27T11:10:44.033Z,74532.00
2023-04-27T11:11:44.332Z,73342.00
2023-04-27T11:12:44.670Z,19499.00
2023-04-27T11:13:45.994Z,22673.00
2023-04-27T11:14:45.973Z,24614.00
2023-04-27T11:15:45.877Z,21625.00
2023-04-27T11:16:45.784Z,73631.00
2023-04-27T11:17:46.070Z,73756.00
2023-04-27T11:18:46.275Z,26350.00
2023-04-27T11:19:46.557Z,24080.00
2023-04-27T11:20:46.944Z,24620.00
2023-04-27T11:21:47.301Z,72155.00
2023-04-27T11:22:47.633Z,74208.00
2023-04-27T11:23:47.951Z,75279.00
2023-04-27T11:24:49.096Z,74025.00
2023-04-27T11:25:48.496Z,29271.00
2023-04-27T11:26:48.796Z,23403.00
2023-04-27T11:27:48.999Z,21413.00
2023-04-27T11:28:49.413Z,74223.00
2023-04-27T11:29:49.748Z,21066.00
2023-04-27T11:30:50.052Z,19828.00
2023-04-27T11:31:50.312Z,19851.00
2023-04-27T11:32:51.573Z,75635.00
2023-04-27T11:33:50.937Z,73471.00
2023-04-27T11:34:51.218Z,22554.00
2023-04-27T11:35:51.483Z,21630.00
2023-04-27T11:36:51.767Z,73031.00
2023-04-27T11:37:52.010Z,21513.00
2023-04-27T11:38:52.304Z,22912.00
2023-04-27T11:39:52.639Z,24591.00
2023-04-27T11:40:52.865Z,21423.00
2023-04-27T11:41:52.994Z,20869.00
2023-04-27T11:42:53.208Z,25229.00
2023-04-27T11:43:53.606Z,18051.00
2023-04-27T11:44:54.162Z,75487.00
2023-04-27T11:45:54.051Z,21939.00
2023-04-27T11:46:54.619Z,73809.00
2023-04-27T11:47:54.778Z,22803.00
2023-04-27T11:48:54.953Z,74949.00
2023-04-27T11:49:55.236Z,23832.00
2023-04-27T11:50:55.534Z,19962.00
2023-04-27T11:51:55.792Z,20201.00
2023-04-27T11:52:56.200Z,18505.00
2023-04-27T11:53:57.200Z,13500.00
2023-04-27T11:54:56.607Z,16927.00
2023-04-27T11:55:56.850Z,19225.00
2023-04-27T11:56:57.067Z,16340.00
2023-04-27T11:57:57.496Z,18250.00
2023-04-27T11:58:57.604Z,16135.00
2023-04-27T11:59:58.013Z,17748.00
2023-04-27T12:00:58.128Z,18772.00
2023-04-27T12:01:58.426Z,18994.00
2023-04-27T12:02:58.972Z,18504.00
2023-04-27T12:04:02.126Z,20739.00
2023-04-27T12:05:00.046Z,16802.00
2023-04-27T12:06:11.691Z,16103.00
2023-04-27T12:07:00.794Z,16634.00
2023-04-27T12:08:00.004Z,18571.00
2023-04-27T12:09:00.222Z,12340.00
2023-04-27T12:10:01.061Z,17366.00
2023-04-27T12:11:00.992Z,14383.00
2023-04-27T12:12:01.257Z,7789.00
2023-04-27T12:13:01.459Z,6573.00
2023-04-27T12:14:01.767Z,6035.00
2023-04-27T12:15:01.985Z,6720.00
2023-04-27T12:16:02.285Z,6534.00
2023-04-27T12:17:02.648Z,6456.00
2023-04-27T12:18:03.069Z,5946.00
2023-04-27T12:19:03.231Z,6473.00
2023-04-27T12:20:03.435Z,6165.00
2023-04-27T12:21:04.038Z,5849.00
2023-04-27T12:22:03.939Z,6008.00
2023-04-27T12:23:04.192Z,6098.00
2023-04-27T12:24:04.500Z,6052.00
2023-04-27T12:25:04.797Z,5605.00
2023-04-27T12:26:05.028Z,5393.00
2023-04-27T12:27:05.263Z,5530.00
2023-04-27T12:28:05.621Z,5392.00
2023-04-27T12:29:05.769Z,5324.00
2023-04-27T12:30:06.182Z,5701.00
2023-04-27T12:31:06.504Z,4950.00
2023-04-27T12:32:06.748Z,5366.00
2023-04-27T12:33:07.065Z,5203.00
2023-04-27T12:34:07.372Z,5048.00
2023-04-27T12:35:07.648Z,4892.00
2023-04-27T12:36:07.824Z,4881.00
2023-04-27T12:37:08.319Z,4733.00
2023-04-27T12:38:08.378Z,4796.00
2023-04-27T12:39:09.095Z,4959.00
2023-04-27T12:40:08.918Z,4782.00
2023-04-27T12:41:09.183Z,4827.00
2023-04-27T12:42:09.404Z,4649.00
2023-04-27T12:43:09.765Z,4904.00
2023-04-27T12:44:10.030Z,4863.00
2023-04-27T12:45:10.354Z,4822.00
2023-04-27T12:46:10.559Z,4873.00
2023-04-27T12:47:13.540Z,4851.00
2023-04-27T12:48:12.048Z,4806.00
2023-04-27T12:49:11.332Z,4699.00
2023-04-27T12:50:11.719Z,4546.00